Time;durP1;ratioP1;P1;durP2;ratioP2;P2;SDS_P1;SDS_P2;PMS_P1;PMS_P2;Temp;Humidity;BMP_temperature;BMP_pressure;BME280_temperature;BME280_humidity;BME280_pressure;Samples;Min_cycle;Max_cycle;Signal;HPM_P1;HPM_P2
2022/08/26 00:01:17;;;;;;;10.38;7.72;;;15.30;99.90;;;;;;4969901;28;20134;-59
2022/08/26 00:03:43;;;;;;;10.77;8.32;;;15.30;99.90;;;;;;4971714;28;20038;-59
2022/08/26 00:06:09;;;;;;;9.23;7.22;;;15.20;99.90;;;;;;4967276;28;20034;-59
2022/08/26 00:08:35;;;;;;;9.82;6.75;;;15.20;99.90;;;;;;4970157;28;20058;-59
2022/08/26 00:11:00;;;;;;;13.70;7.53;;;15.20;99.90;;;;;;4969534;28;20027;-59
2022/08/26 00:13:27;;;;;;;9.55;7.70;;;15.10;99.90;;;;;;4960737;28;20042;-59
2022/08/26 00:15:52;;;;;;;12.25;7.53;;;15.10;99.90;;;;;;4970776;28;20471;-59
2022/08/26 00:18:19;;;;;;;10.38;7.40;;;15.10;99.90;;;;;;4969038;28;20034;-59
2022/08/26 00:20:45;;;;;;;12.00;8.07;;;15.00;99.90;;;;;;4971557;28;20119;-59
2022/08/26 00:23:10;;;;;;;10.85;8.15;;;15.10;99.90;;;;;;4968412;28;20051;-59
2022/08/26 00:25:37;;;;;;;12.23;8.43;;;15.00;99.90;;;;;;4971263;28;20461;-59
2022/08/26 00:28:04;;;;;;;11.35;7.80;;;15.00;99.90;;;;;;4970247;28;20050;-60
2022/08/26 00:30:30;;;;;;;11.23;7.30;;;15.00;99.90;;;;;;4961742;28;20027;-59
2022/08/26 00:32:57;;;;;;;10.55;8.43;;;14.90;99.90;;;;;;4968005;28;20043;-59
2022/08/26 00:35:24;;;;;;;13.40;7.75;;;14.90;99.90;;;;;;4969546;28;20045;-59
2022/08/26 00:37:50;;;;;;;11.50;7.80;;;14.80;99.90;;;;;;4968933;28;20391;-59
2022/08/26 00:40:46;;;;;;;15.07;7.75;;;14.80;99.90;;;;;;4968991;28;20030;-60
2022/08/26 00:43:13;;;;;;;11.65;7.28;;;14.90;99.90;;;;;;4960157;28;20208;-59
2022/08/26 00:46:01;;;;;;;9.60;7.03;;;15.00;99.90;;;;;;4971041;28;20022;-59
2022/08/26 00:48:29;;;;;;;10.57;7.43;;;15.00;99.90;;;;;;4966576;28;20026;-59
2022/08/26 00:51:09;;;;;;;8.60;6.85;;;14.90;99.90;;;;;;4964336;28;20050;-60
2022/08/26 00:53:43;;;;;;;11.52;6.90;;;15.00;99.90;;;;;;4967859;28;20042;-58
2022/08/26 00:56:18;;;;;;;10.50;7.47;;;14.90;99.90;;;;;;4958014;28;20039;-66
2022/08/26 00:58:46;;;;;;;10.85;7.47;;;15.00;99.90;;;;;;4964938;28;20074;-60
2022/08/26 01:01:13;;;;;;;9.50;7.40;;;15.10;99.90;;;;;;4967960;28;20082;-58
2022/08/26 01:03:40;;;;;;;11.90;7.10;;;15.10;99.90;;;;;;4970096;28;20026;-60
2022/08/26 01:06:07;;;;;;;11.73;7.90;;;15.00;99.90;;;;;;4968689;28;20031;-60
2022/08/26 01:08:33;;;;;;;8.45;6.63;;;15.00;99.90;;;;;;4966380;28;20030;-60
2022/08/26 01:11:01;;;;;;;9.23;6.72;;;14.90;99.90;;;;;;4978505;28;20394;-60
2022/08/26 01:13:28;;;;;;;9.52;7.30;;;14.80;99.90;;;;;;4971753;28;20031;-60
2022/08/26 01:16:01;;;;;;;10.38;7.85;;;14.70;99.90;;;;;;4980476;28;20030;-60
2022/08/26 01:18:27;;;;;;;11.52;8.25;;;14.60;99.90;;;;;;4963548;28;20085;-60
2022/08/26 01:21:23;;;;;;;12.63;9.32;;;14.60;99.90;;;;;;4974695;28;20085;-60
2022/08/26 01:23:51;;;;;;;10.68;8.05;;;14.50;99.90;;;;;;4968949;28;20034;-59
2022/08/26 01:26:21;;;;;;;13.85;8.95;;;14.50;99.90;;;;;;4972399;28;20027;-59
2022/08/26 01:28:50;;;;;;;12.68;8.60;;;14.50;99.90;;;;;;4957695;28;20038;-60
2022/08/26 01:31:19;;;;;;;16.13;9.20;;;14.40;99.90;;;;;;4958866;28;20031;-59
2022/08/26 01:33:51;;;;;;;12.15;9.18;;;14.40;99.90;;;;;;4961872;28;20059;-59
2022/08/26 01:36:17;;;;;;;17.30;9.02;;;14.40;99.90;;;;;;4955439;28;20032;-60
2022/08/26 01:38:44;;;;;;;12.05;8.10;;;14.50;99.90;;;;;;4954334;28;20027;-59
2022/08/26 01:41:13;;;;;;;16.85;9.65;;;14.50;99.90;;;;;;4949706;28;20432;-59
2022/08/26 01:43:42;;;;;;;12.52;9.13;;;14.40;99.90;;;;;;4954522;28;20032;-59
2022/08/26 01:46:09;;;;;;;12.95;8.98;;;14.40;99.90;;;;;;4956753;28;20443;-59
2022/08/26 01:48:37;;;;;;;12.00;8.40;;;14.40;99.90;;;;;;4958616;28;20568;-59
2022/08/26 01:51:06;;;;;;;10.60;8.40;;;14.30;99.90;;;;;;4960192;28;20041;-59
2022/08/26 01:53:32;;;;;;;11.23;7.93;;;14.30;99.90;;;;;;4955832;28;20044;-60
2022/08/26 01:56:01;;;;;;;12.50;8.45;;;14.30;99.90;;;;;;4962128;28;20043;-60
2022/08/26 01:58:38;;;;;;;15.88;8.70;;;14.20;99.90;;;;;;4962586;28;20041;-59
2022/08/26 02:01:05;;;;;;;11.55;8.82;;;14.20;99.90;;;;;;4959396;28;20436;-60
2022/08/26 02:03:31;;;;;;;11.50;7.97;;;14.20;99.90;;;;;;4958440;28;20439;-59
2022/08/26 02:06:04;;;;;;;13.05;9.02;;;14.20;99.90;;;;;;4966975;28;20049;-59
2022/08/26 02:08:46;;;;;;;13.80;9.38;;;14.10;99.90;;;;;;4962330;28;20055;-59
2022/08/26 02:11:12;;;;;;;18.93;9.40;;;14.20;99.90;;;;;;4961894;28;20027;-59
2022/08/26 02:13:45;;;;;;;11.65;8.98;;;14.10;99.90;;;;;;4957125;28;20062;-59
2022/08/26 02:16:11;;;;;;;12.82;8.98;;;14.10;99.90;;;;;;4958296;28;20038;-58
2022/08/26 02:18:40;;;;;;;14.57;9.27;;;14.10;99.90;;;;;;4959091;28;20058;-59
2022/08/26 02:21:07;;;;;;;14.55;9.40;;;14.10;99.90;;;;;;4963563;28;20073;-59
2022/08/26 02:23:32;;;;;;;13.65;9.73;;;14.00;99.90;;;;;;4959379;28;20387;-59
2022/08/26 02:26:08;;;;;;;12.65;9.77;;;14.10;99.90;;;;;;4958200;28;20042;-59
2022/08/26 02:29:00;;;;;;;18.50;11.00;;;14.00;99.90;;;;;;4961434;28;20039;-59
2022/08/26 02:31:25;;;;;;;17.48;11.85;;;14.10;99.90;;;;;;4956235;28;20113;-59
2022/08/26 02:33:51;;;;;;;16.90;11.52;;;14.00;99.90;;;;;;4962146;28;20491;-59
2022/08/26 02:36:22;;;;;;;15.23;10.77;;;14.10;99.90;;;;;;4956358;28;20023;-59
2022/08/26 02:38:47;;;;;;;16.35;11.02;;;14.00;99.90;;;;;;4963187;28;20114;-60
2022/08/26 02:41:13;;;;;;;16.42;10.63;;;14.00;99.90;;;;;;4957769;28;20449;-59
2022/08/26 02:43:39;;;;;;;15.77;10.55;;;14.00;99.90;;;;;;4957804;28;20102;-59
2022/08/26 02:46:05;;;;;;;19.63;11.02;;;14.00;99.90;;;;;;4955549;28;20466;-59
2022/08/26 02:48:30;;;;;;;18.50;11.82;;;14.00;99.90;;;;;;4955388;28;20428;-60
2022/08/26 02:50:59;;;;;;;16.90;11.32;;;13.90;99.90;;;;;;4961580;28;20035;-59
2022/08/26 02:53:25;;;;;;;16.73;11.73;;;13.90;99.90;;;;;;4961712;28;20028;-59
2022/08/26 02:55:50;;;;;;;18.55;11.23;;;14.00;99.90;;;;;;4955296;28;20041;-60
2022/08/26 02:58:16;;;;;;;14.45;11.25;;;14.00;99.90;;;;;;4956701;28;20023;-59
2022/08/26 03:00:42;;;;;;;16.67;11.77;;;13.90;99.90;;;;;;4957703;28;20039;-59
2022/08/26 03:03:07;;;;;;;15.55;10.93;;;13.90;99.90;;;;;;4955299;28;20071;-60
2022/08/26 03:05:34;;;;;;;17.48;12.27;;;13.90;99.90;;;;;;4954844;28;20074;-59
2022/08/26 03:08:00;;;;;;;17.35;11.13;;;13.90;99.90;;;;;;4963445;28;20102;-59
2022/08/26 03:10:26;;;;;;;18.15;11.70;;;13.90;99.90;;;;;;4959453;28;20056;-59
2022/08/26 03:12:52;;;;;;;18.70;12.15;;;13.90;99.90;;;;;;4959594;28;20027;-59
2022/08/26 03:15:18;;;;;;;17.27;11.68;;;13.80;99.90;;;;;;4954774;28;20082;-59
2022/08/26 03:17:48;;;;;;;16.92;11.77;;;13.90;99.90;;;;;;4963974;28;20058;-59
2022/08/26 03:20:15;;;;;;;21.00;11.15;;;13.90;99.90;;;;;;4958067;28;20062;-59
2022/08/26 03:22:40;;;;;;;16.52;11.55;;;13.90;99.90;;;;;;4961568;28;20019;-59
2022/08/26 03:25:09;;;;;;;15.70;11.50;;;13.80;99.90;;;;;;4956313;28;20033;-59
2022/08/26 03:27:34;;;;;;;16.90;11.65;;;13.80;99.90;;;;;;4958161;28;20031;-59
2022/08/26 03:32:45;;;;;;;14.90;11.32;;;13.80;99.90;;;;;;4959708;28;20082;-59
2022/08/26 03:35:11;;;;;;;17.92;12.18;;;13.80;99.90;;;;;;4958758;28;20043;-60
2022/08/26 03:37:37;;;;;;;18.88;11.70;;;13.70;99.90;;;;;;4957685;28;20054;-59
2022/08/26 03:40:05;;;;;;;20.38;12.77;;;13.70;99.90;;;;;;4959407;28;20037;-58
2022/08/26 03:42:30;;;;;;;19.05;12.60;;;13.70;99.90;;;;;;4954740;28;20043;-58
2022/08/26 03:44:56;;;;;;;17.27;13.02;;;13.70;99.90;;;;;;4959374;28;20027;-59
2022/08/26 03:47:22;;;;;;;18.08;12.68;;;13.70;99.90;;;;;;4958638;28;20027;-59
2022/08/26 03:49:47;;;;;;;19.35;12.65;;;13.70;99.90;;;;;;4960476;28;20486;-59
2022/08/26 03:52:13;;;;;;;22.33;12.77;;;13.70;99.90;;;;;;4956999;28;20035;-58
2022/08/26 03:54:40;;;;;;;19.88;13.15;;;13.70;99.90;;;;;;4956788;28;20028;-61
2022/08/26 03:57:07;;;;;;;21.17;13.15;;;13.70;99.90;;;;;;4957149;28;20035;-61
2022/08/26 03:59:33;;;;;;;23.15;12.98;;;13.60;99.90;;;;;;4959087;28;20035;-60
2022/08/26 04:01:59;;;;;;;20.80;14.50;;;13.60;99.90;;;;;;4955677;28;20056;-58
2022/08/26 04:04:24;;;;;;;20.15;13.98;;;13.60;99.90;;;;;;4956886;28;20496;-60
2022/08/26 04:06:57;;;;;;;23.15;15.43;;;13.60;99.90;;;;;;4954681;28;20122;-59
2022/08/26 04:09:22;;;;;;;;;;;13.60;99.90;;;;;;4956566;28;20035;-58
2022/08/26 04:11:48;;;;;;;22.50;14.38;;;13.70;99.90;;;;;;4954512;28;20330;-58
2022/08/26 04:14:17;;;;;;;25.58;14.65;;;13.70;99.90;;;;;;4957874;28;20035;-59
2022/08/26 04:16:44;;;;;;;23.00;14.32;;;13.70;99.90;;;;;;4958948;28;20516;-59
2022/08/26 04:19:11;;;;;;;25.10;16.23;;;13.70;99.90;;;;;;4954929;28;20032;-58
2022/08/26 04:21:38;;;;;;;26.08;15.27;;;13.70;99.90;;;;;;4955130;28;20035;-58
2022/08/26 04:24:04;;;;;;;25.15;15.50;;;13.70;99.90;;;;;;4957376;28;20037;-59
2022/08/26 04:26:35;;;;;;;24.92;15.18;;;13.70;99.90;;;;;;4955384;28;20043;-60
2022/08/26 04:29:04;;;;;;;25.77;14.68;;;13.80;99.90;;;;;;4957975;28;20042;-59
2022/08/26 04:31:30;;;;;;;24.10;14.63;;;13.80;99.90;;;;;;4957795;28;20030;-60
2022/08/26 04:33:55;;;;;;;22.92;14.95;;;13.70;99.90;;;;;;4959630;28;20069;-63
2022/08/26 04:36:22;;;;;;;25.80;16.25;;;13.80;99.90;;;;;;4955523;28;20031;-60
2022/08/26 04:38:49;;;;;;;22.38;14.75;;;13.70;99.90;;;;;;4959606;28;20043;-60
2022/08/26 04:41:16;;;;;;;23.65;14.32;;;13.80;99.90;;;;;;4958564;28;20498;-60
2022/08/26 04:43:43;;;;;;;27.10;15.55;;;13.80;99.90;;;;;;4956788;28;20035;-60
2022/08/26 04:46:10;;;;;;;22.77;13.75;;;13.90;99.90;;;;;;4955974;28;20039;-60
2022/08/26 04:48:36;;;;;;;28.55;14.93;;;13.90;99.90;;;;;;4956880;28;20030;-60
2022/08/26 04:51:03;;;;;;;23.77;14.55;;;14.00;99.90;;;;;;4956234;28;20127;-60
2022/08/26 04:53:29;;;;;;;22.90;14.30;;;14.20;99.90;;;;;;4953517;28;20102;-61
2022/08/26 04:55:55;;;;;;;22.05;14.15;;;14.20;99.90;;;;;;4953032;28;20030;-59
2022/08/26 04:58:23;;;;;;;19.05;14.18;;;14.30;99.90;;;;;;4953297;28;20026;-59
2022/08/26 05:00:52;;;;;;;19.58;12.52;;;14.30;99.90;;;;;;4955493;28;20086;-61
2022/08/26 05:03:18;;;;;;;22.20;14.15;;;14.30;99.90;;;;;;4953611;28;20075;-59
2022/08/26 05:05:46;;;;;;;20.40;13.68;;;14.30;99.90;;;;;;4957146;28;20398;-59
2022/08/26 05:08:13;;;;;;;25.75;14.77;;;14.30;99.90;;;;;;4950271;28;20039;-59
2022/08/26 05:10:49;;;;;;;22.50;14.18;;;14.30;99.90;;;;;;4955041;28;20023;-59
2022/08/26 05:13:17;;;;;;;24.30;15.00;;;14.20;99.90;;;;;;4963580;28;20027;-59
2022/08/26 05:15:43;;;;;;;23.58;14.32;;;14.30;99.90;;;;;;4965703;28;20031;-59
2022/08/26 05:18:09;;;;;;;21.55;14.05;;;14.30;99.90;;;;;;4967884;28;20118;-59
2022/08/26 05:20:43;;;;;;;25.52;14.60;;;14.30;99.90;;;;;;4969039;28;20118;-59
2022/08/26 05:23:09;;;;;;;21.35;14.07;;;14.30;99.90;;;;;;4955178;28;20031;-59
2022/08/26 05:25:40;;;;;;;24.08;14.18;;;14.30;99.90;;;;;;4955702;28;20485;-59
2022/08/26 05:28:07;;;;;;;24.48;15.15;;;14.30;99.90;;;;;;4954185;28;20395;-58
2022/08/26 05:30:35;;;;;;;26.77;14.20;;;14.30;99.90;;;;;;4957928;28;20056;-59
2022/08/26 05:33:01;;;;;;;21.88;14.13;;;14.40;99.90;;;;;;4963692;28;20043;-58
2022/08/26 05:35:32;;;;;;;20.30;13.45;;;14.40;99.90;;;;;;4962722;28;20539;-59
2022/08/26 05:38:03;;;;;;;22.67;13.73;;;14.50;99.90;;;;;;4961464;28;20031;-60
2022/08/26 05:40:32;;;;;;;17.42;11.27;;;14.50;99.90;;;;;;4962662;28;20145;-60
2022/08/26 05:42:59;;;;;;;16.13;11.10;;;14.50;99.90;;;;;;4959966;28;20019;-59
2022/08/26 05:45:25;;;;;;;21.95;11.27;;;14.50;99.90;;;;;;4957066;28;20027;-58
2022/08/26 05:47:51;;;;;;;17.02;11.23;;;14.50;99.90;;;;;;4961659;28;20034;-59
2022/08/26 05:50:21;;;;;;;18.48;10.63;;;14.50;99.90;;;;;;4959846;28;20027;-59
2022/08/26 05:52:51;;;;;;;16.45;10.60;;;14.50;99.90;;;;;;4961666;28;20103;-59
2022/08/26 05:55:17;;;;;;;18.20;11.07;;;14.50;99.90;;;;;;4959555;28;20051;-59
2022/08/26 05:57:43;;;;;;;17.15;11.05;;;14.50;99.90;;;;;;4960996;28;20109;-59
2022/08/26 06:00:11;;;;;;;17.83;11.43;;;14.40;99.90;;;;;;4957332;28;20729;-59
2022/08/26 06:02:37;;;;;;;19.92;12.05;;;14.50;99.90;;;;;;4961178;28;20118;-60
2022/08/26 06:05:04;;;;;;;23.00;12.50;;;14.50;99.90;;;;;;4963020;28;20501;-59
2022/08/26 06:10:18;;;;;;;18.23;12.00;;;14.60;99.90;;;;;;4928210;29;20035;-60
2022/08/26 06:12:44;;;;;;;19.85;12.23;;;14.60;99.90;;;;;;4928666;29;20040;-60
2022/08/26 06:15:10;;;;;;;21.77;13.30;;;14.70;99.90;;;;;;4920170;29;20055;-60
2022/08/26 06:17:36;;;;;;;24.60;13.70;;;14.80;99.90;;;;;;4926877;29;20031;-59
2022/08/26 06:20:01;;;;;;;22.67;13.85;;;14.90;99.90;;;;;;4928639;29;20067;-60
2022/08/26 06:27:56;;;;;;;22.42;13.90;;;15.00;99.90;;;;;;4925917;29;20433;-60
2022/08/26 06:30:21;;;;;;;22.23;13.25;;;15.10;99.90;;;;;;4930587;29;20028;-60
2022/08/26 06:32:47;;;;;;;21.75;13.82;;;15.10;99.90;;;;;;4925162;29;20067;-58
2022/08/26 06:35:13;;;;;;;23.17;15.15;;;15.20;99.90;;;;;;4924480;29;20052;-59
2022/08/26 06:37:39;;;;;;;20.85;13.88;;;15.30;99.90;;;;;;4927185;29;20054;-59
2022/08/26 06:40:05;;;;;;;23.50;14.45;;;15.30;99.90;;;;;;4930048;29;20086;-59
2022/08/26 06:42:32;;;;;;;25.95;15.23;;;15.40;99.90;;;;;;4933966;29;20099;-59
2022/08/26 06:44:58;;;;;;;21.70;14.98;;;15.50;99.90;;;;;;4934995;29;20024;-60
2022/08/26 06:47:24;;;;;;;23.55;13.77;;;15.50;99.90;;;;;;4947366;28;20068;-58
2022/08/26 06:49:50;;;;;;;24.10;13.93;;;15.50;99.90;;;;;;4964771;28;20081;-61
2022/08/26 06:52:16;;;;;;;24.75;15.55;;;15.60;99.90;;;;;;4974285;28;20085;-59
2022/08/26 06:54:42;;;;;;;22.50;14.63;;;15.70;99.90;;;;;;4968878;28;20423;-59
2022/08/26 06:57:11;;;;;;;21.98;14.30;;;15.70;99.90;;;;;;4969287;28;20039;-58
2022/08/26 06:59:37;;;;;;;21.48;14.18;;;15.70;99.90;;;;;;4961774;28;20111;-59
2022/08/26 07:02:04;;;;;;;23.27;14.75;;;15.70;99.90;;;;;;4964488;28;20113;-60
2022/08/26 07:04:30;;;;;;;26.48;15.10;;;15.70;99.90;;;;;;4952369;28;20027;-61
2022/08/26 07:06:56;;;;;;;23.17;14.45;;;15.80;99.90;;;;;;4960426;28;20110;-61
2022/08/26 07:09:24;;;;;;;22.17;15.38;;;15.80;99.90;;;;;;4961194;28;20024;-60
2022/08/26 07:11:50;;;;;;;20.52;14.13;;;16.00;99.90;;;;;;4961047;28;20035;-60
2022/08/26 07:14:17;;;;;;;21.77;14.32;;;16.10;99.90;;;;;;4960471;28;20471;-61
2022/08/26 07:16:43;;;;;;;27.70;16.35;;;16.20;99.90;;;;;;4960109;28;20114;-61
2022/08/26 07:19:09;;;;;;;24.50;16.17;;;16.30;99.90;;;;;;4957746;28;20098;-60
2022/08/26 07:21:35;;;;;;;21.17;14.50;;;16.30;99.90;;;;;;4958767;28;20038;-60
2022/08/26 07:24:00;;;;;;;25.17;15.60;;;16.30;99.90;;;;;;4968363;28;20110;-60
2022/08/26 07:26:28;;;;;;;24.08;15.80;;;16.30;99.90;;;;;;4964917;28;20018;-60
2022/08/26 07:28:55;;;;;;;26.42;15.20;;;16.10;99.90;;;;;;4970099;28;20027;-61
2022/08/26 07:31:23;;;;;;;25.42;15.40;;;16.20;99.90;;;;;;4967727;28;20379;-60
2022/08/26 07:33:50;;;;;;;24.17;14.80;;;16.20;99.90;;;;;;4967584;28;20142;-60
2022/08/26 07:36:17;;;;;;;24.67;15.90;;;16.20;99.90;;;;;;4968354;28;20077;-60
2022/08/26 07:38:44;;;;;;;25.40;15.27;;;16.40;99.90;;;;;;4970290;28;20038;-60
2022/08/26 07:41:12;;;;;;;21.42;15.27;;;16.40;99.90;;;;;;4966055;28;20061;-59
2022/08/26 07:43:39;;;;;;;24.08;14.30;;;16.40;99.90;;;;;;4962028;28;20027;-60
2022/08/26 07:46:07;;;;;;;23.27;15.13;;;16.50;99.90;;;;;;4969200;28;20062;-60
2022/08/26 07:48:35;;;;;;;22.85;16.17;;;16.60;99.90;;;;;;4968071;28;20053;-60
2022/08/26 07:51:02;;;;;;;23.15;15.15;;;16.50;99.90;;;;;;4959184;28;20087;-60
2022/08/26 07:53:28;;;;;;;23.20;15.98;;;16.80;99.90;;;;;;4963032;28;20030;-59
2022/08/26 07:55:53;;;;;;;21.67;14.95;;;16.90;99.90;;;;;;4969717;28;20100;-60
2022/08/26 07:58:19;;;;;;;21.73;14.60;;;17.00;99.90;;;;;;4966283;28;20049;-60
2022/08/26 08:00:46;;;;;;;19.88;13.85;;;16.90;99.90;;;;;;4965777;28;20043;-60
2022/08/26 08:03:13;;;;;;;17.98;13.95;;;16.70;99.90;;;;;;4967775;28;20031;-60
2022/08/26 08:05:39;;;;;;;21.27;15.23;;;16.50;99.90;;;;;;4966012;28;20048;-60
2022/08/26 08:08:08;;;;;;;17.83;13.65;;;16.50;99.90;;;;;;4968297;28;20030;-62
2022/08/26 08:10:35;;;;;;;21.40;13.55;;;16.50;99.90;;;;;;4968327;28;20030;-61
2022/08/26 08:13:02;;;;;;;16.83;11.15;;;16.60;99.90;;;;;;4965003;28;20027;-61
2022/08/26 08:15:30;;;;;;;15.48;10.95;;;16.50;99.90;;;;;;4962504;28;20045;-60
2022/08/26 08:17:56;;;;;;;14.80;10.05;;;16.60;99.90;;;;;;4968062;28;20046;-61
2022/08/26 08:20:22;;;;;;;14.13;10.32;;;16.70;99.90;;;;;;4964896;28;20386;-60
2022/08/26 08:22:48;;;;;;;14.50;10.30;;;16.70;99.90;;;;;;4967574;28;20037;-61
2022/08/26 08:25:14;;;;;;;14.75;10.27;;;16.70;99.90;;;;;;4967376;28;20042;-60
2022/08/26 08:27:41;;;;;;;15.93;9.30;;;16.80;99.90;;;;;;4968650;28;20057;-60
2022/08/26 08:30:08;;;;;;;18.50;15.32;;;16.80;99.90;;;;;;4969787;28;20038;-60
2022/08/26 08:32:36;;;;;;;17.92;11.52;;;16.80;99.90;;;;;;4967345;28;20023;-60
2022/08/26 08:35:04;;;;;;;13.93;8.90;;;16.80;99.90;;;;;;4965669;28;20129;-60
2022/08/26 08:37:29;;;;;;;15.77;9.25;;;16.90;99.90;;;;;;4966497;28;20036;-61
2022/08/26 08:39:55;;;;;;;13.27;9.18;;;16.90;99.90;;;;;;4964879;28;20034;-61
2022/08/26 08:42:43;;;;;;;12.38;8.65;;;17.10;99.90;;;;;;4958173;28;20134;-60
2022/08/26 08:45:20;;;;;;;11.57;8.23;;;17.20;99.90;;;;;;4960652;28;20395;-60
2022/08/26 08:47:57;;;;;;;11.60;7.35;;;17.30;99.90;;;;;;4965617;28;20027;-60
2022/08/26 08:50:35;;;;;;;11.73;7.82;;;17.40;99.90;;;;;;4965907;28;20027;-61
2022/08/26 08:53:13;;;;;;;13.43;7.38;;;17.50;99.90;;;;;;4966368;28;20039;-60
2022/08/26 08:56:11;;;;;;;11.82;6.93;;;17.60;99.90;;;;;;4962161;28;20026;-60
2022/08/26 08:58:56;;;;;;;13.10;6.95;;;17.70;99.90;;;;;;4964207;28;20034;-59
2022/08/26 09:01:27;;;;;;;9.98;6.78;;;17.80;99.90;;;;;;4968222;28;20043;-60
2022/08/26 09:04:08;;;;;;;8.73;6.68;;;18.00;99.90;;;;;;4970061;28;20034;-61
2022/08/26 09:06:34;;;;;;;7.78;5.90;;;18.00;99.90;;;;;;4969183;28;20042;-61
2022/08/26 09:09:01;;;;;;;10.07;5.95;;;18.00;99.90;;;;;;4968971;28;20031;-60
2022/08/26 09:11:28;;;;;;;9.45;5.63;;;18.00;99.90;;;;;;4967601;28;20026;-61
2022/08/26 09:13:54;;;;;;;8.60;4.95;;;18.00;99.90;;;;;;4969133;28;20174;-62
2022/08/26 09:16:31;;;;;;;7.35;4.47;;;18.20;99.90;;;;;;4967320;28;20089;-61
2022/08/26 09:19:05;;;;;;;15.15;6.97;;;18.30;99.90;;;;;;4970657;28;20034;-61
2022/08/26 09:21:31;;;;;;;8.38;4.63;;;18.50;99.90;;;;;;4966768;28;20039;-61
2022/08/26 09:23:57;;;;;;;7.28;4.28;;;18.60;99.90;;;;;;4969956;28;20031;-61
2022/08/26 09:26:46;;;;;;;9.90;4.85;;;18.60;99.90;;;;;;4968976;28;20093;-63
2022/08/26 09:29:25;;;;;;;6.93;4.07;;;18.80;99.90;;;;;;4967219;28;20042;-61
2022/08/26 09:32:11;;;;;;;5.45;3.70;;;18.80;99.90;;;;;;4965932;28;20586;-61
2022/08/26 09:35:11;;;;;;;7.78;4.20;;;18.90;99.90;;;;;;4968473;28;20086;-61
2022/08/26 09:37:37;;;;;;;6.15;3.90;;;19.00;99.90;;;;;;4951172;28;20039;-62
2022/08/26 09:40:23;;;;;;;9.60;3.42;;;19.00;99.90;;;;;;4968176;28;20037;-62
2022/08/26 09:43:07;;;;;;;6.88;3.47;;;19.20;99.90;;;;;;4961868;28;20062;-60
2022/08/26 09:45:34;;;;;;;5.40;3.38;;;19.50;99.90;;;;;;4966294;28;20495;-61
2022/08/26 09:48:00;;;;;;;7.53;3.50;;;19.60;99.90;;;;;;4967791;28;20026;-61
2022/08/26 09:50:30;;;;;;;6.97;3.08;;;19.80;99.90;;;;;;4967684;28;20027;-61
2022/08/26 09:53:20;;;;;;;5.65;3.38;;;19.80;99.90;;;;;;4968062;28;20586;-61
2022/08/26 09:55:48;;;;;;;4.07;3.20;;;20.00;99.90;;;;;;4973378;28;20038;-60
2022/08/26 09:58:35;;;;;;;7.85;3.08;;;19.90;99.90;;;;;;4968918;28;20047;-59
2022/08/26 10:01:04;;;;;;;6.72;3.45;;;20.00;99.90;;;;;;4956430;28;20398;-62
2022/08/26 10:03:34;;;;;;;8.88;3.33;;;20.10;99.90;;;;;;4969997;28;20031;-60
2022/08/26 10:06:23;;;;;;;4.55;2.55;;;20.10;99.90;;;;;;4964199;28;20546;-61
2022/08/26 10:08:57;;;;;;;5.78;3.63;;;20.30;99.90;;;;;;4971741;28;20073;-62
2022/08/26 10:11:29;;;;;;;6.13;2.30;;;20.50;99.90;;;;;;4973473;28;20026;-59
2022/08/26 10:14:34;;;;;;;4.25;2.67;;;20.60;99.90;;;;;;4974353;28;20026;-61
2022/08/26 10:17:25;;;;;;;6.75;2.50;;;20.60;99.90;;;;;;4969756;28;20054;-60
2022/08/26 10:20:04;;;;;;;7.60;2.90;;;20.80;99.90;;;;;;4972516;28;20027;-59
2022/08/26 10:22:59;;;;;;;10.02;3.30;;;21.00;99.90;;;;;;4955590;28;20046;-60
2022/08/26 10:25:44;;;;;;;6.68;2.75;;;21.10;99.90;;;;;;4962940;28;20122;-59
2022/08/26 10:28:22;;;;;;;5.85;2.33;;;21.10;99.90;;;;;;4958229;28;20071;-60
2022/08/26 10:30:59;;;;;;;8.57;2.55;;;20.90;99.90;;;;;;4961382;28;20038;-63
2022/08/26 10:33:25;;;;;;;4.20;1.80;;;21.00;99.90;;;;;;4968908;28;20041;-61
2022/08/26 10:35:57;;;;;;;3.88;1.90;;;21.10;99.90;;;;;;4971748;28;20045;-60
2022/08/26 10:38:30;;;;;;;3.83;1.77;;;21.20;99.90;;;;;;4969596;28;20046;-61
2022/08/26 10:41:09;;;;;;;4.45;1.90;;;21.60;99.90;;;;;;4966263;28;20053;-60
2022/08/26 10:43:42;;;;;;;4.32;1.80;;;21.80;99.90;;;;;;4970420;28;20398;-61
2022/08/26 10:46:13;;;;;;;6.80;2.00;;;22.00;99.90;;;;;;4963297;28;20022;-61
2022/08/26 10:48:52;;;;;;;8.68;2.60;;;22.20;99.90;;;;;;4967176;28;20027;-61
2022/08/26 10:51:25;;;;;;;3.75;1.80;;;22.20;99.90;;;;;;4962506;28;20066;-61
2022/08/26 10:54:00;;;;;;;4.70;2.28;;;22.40;99.90;;;;;;4973304;28;20122;-60
2022/08/26 10:56:53;;;;;;;5.75;1.88;;;22.70;99.90;;;;;;4969445;28;20114;-61
2022/08/26 10:59:47;;;;;;;3.83;1.90;;;23.20;99.90;;;;;;4964854;28;20030;-60
2022/08/26 11:02:23;;;;;;;7.28;2.22;;;23.20;99.90;;;;;;4966344;28;20063;-61
2022/08/26 11:04:59;;;;;;;4.65;1.92;;;23.40;99.90;;;;;;4962161;28;20035;-61
2022/08/26 11:07:30;;;;;;;8.93;1.85;;;23.20;99.30;;;;;;4975548;28;20103;-60
2022/08/26 11:10:17;;;;;;;5.70;1.80;;;23.20;99.90;;;;;;4971797;28;20019;-60
2022/08/26 11:12:46;;;;;;;5.45;1.90;;;22.90;99.90;;;;;;4965979;28;20031;-60
2022/08/26 11:15:25;;;;;;;4.72;2.10;;;22.70;99.90;;;;;;4974918;28;20137;-61
2022/08/26 11:17:51;;;;;;;3.80;1.55;;;22.80;99.90;;;;;;4979402;28;20045;-61
2022/08/26 11:20:33;;;;;;;3.80;1.60;;;23.60;99.90;;;;;;4969085;28;20121;-61
2022/08/26 11:23:11;;;;;;;5.40;1.90;;;24.30;98.50;;;;;;4970678;28;20031;-61
2022/08/26 11:25:59;;;;;;;4.57;2.17;;;24.90;95.90;;;;;;4971409;28;20033;-60
2022/08/26 11:28:44;;;;;;;2.60;1.77;;;25.40;93.70;;;;;;4973908;28;20027;-61
2022/08/26 11:31:18;;;;;;;3.42;1.65;;;26.20;91.10;;;;;;4969497;28;20483;-61
2022/08/26 11:33:51;;;;;;;4.93;2.00;;;26.00;86.00;;;;;;4969657;28;20045;-60
2022/08/26 11:36:44;;;;;;;7.05;2.00;;;25.70;86.60;;;;;;4974120;28;20097;-60
2022/08/26 11:39:12;;;;;;;4.43;1.52;;;26.10;89.90;;;;;;4968411;28;20042;-61
2022/08/26 11:41:42;;;;;;;4.22;1.92;;;26.50;83.00;;;;;;4972751;28;20073;-60
2022/08/26 11:44:08;;;;;;;7.38;1.70;;;26.10;84.10;;;;;;4971689;28;20033;-60
2022/08/26 11:46:36;;;;;;;5.47;1.48;;;26.00;86.40;;;;;;4962680;28;20525;-61
2022/08/26 11:49:06;;;;;;;7.28;2.30;;;26.10;82.40;;;;;;4975859;28;20026;-60
2022/08/26 11:51:33;;;;;;;3.50;1.50;;;25.70;88.90;;;;;;4965404;28;20097;-60
2022/08/26 11:54:18;;;;;;;5.18;1.63;;;25.40;91.20;;;;;;4964046;28;20371;-60
2022/08/26 11:56:46;;;;;;;8.15;2.30;;;26.00;90.70;;;;;;4967180;28;20117;-61
2022/08/26 11:59:17;;;;;;;8.27;1.85;;;26.80;86.80;;;;;;4963111;28;20489;-60
2022/08/26 12:01:47;;;;;;;3.95;1.75;;;27.10;80.20;;;;;;4966891;28;20063;-60
2022/08/26 12:04:25;;;;;;;4.95;2.38;;;27.30;74.60;;;;;;4971235;28;20023;-62
2022/08/26 12:06:51;;;;;;;4.35;1.83;;;27.10;73.80;;;;;;4977691;28;20027;-62
2022/08/26 12:09:33;;;;;;;7.30;1.70;;;27.30;71.80;;;;;;4969230;28;20055;-62
2022/08/26 12:12:09;;;;;;;;;;;27.70;69.10;;;;;;4971747;28;20057;-62
2022/08/26 12:14:35;;;;;;;7.22;1.73;;;28.30;65.30;;;;;;4966891;28;20421;-62
2022/08/26 12:17:30;;;;;;;2.67;1.58;;;27.90;63.70;;;;;;4962314;28;20114;-62
2022/08/26 12:19:57;;;;;;;5.53;1.95;;;26.50;72.20;;;;;;4962586;28;20043;-62
2022/08/26 12:22:26;;;;;;;3.60;1.65;;;25.90;76.20;;;;;;4959885;28;20044;-61
2022/08/26 12:24:58;;;;;;;2.50;1.35;;;26.20;76.80;;;;;;4959218;28;20031;-61
2022/08/26 12:27:30;;;;;;;3.15;1.35;;;27.10;69.90;;;;;;4968968;28;20030;-61
2022/08/26 12:30:05;;;;;;;4.80;1.90;;;27.50;64.50;;;;;;4973685;28;20395;-61
2022/08/26 12:32:31;;;;;;;6.43;1.98;;;28.10;59.80;;;;;;4959070;28;20370;-61
2022/08/26 12:34:59;;;;;;;4.85;1.60;;;28.00;59.50;;;;;;4963930;28;20042;-61
2022/08/26 12:37:26;;;;;;;6.45;2.00;;;27.40;58.80;;;;;;4969686;28;20114;-60
2022/08/26 12:39:52;;;;;;;4.43;1.60;;;27.00;62.30;;;;;;4966604;28;20031;-60
2022/08/26 12:42:18;;;;;;;6.13;2.10;;;26.40;63.00;;;;;;4966736;28;20066;-60
2022/08/26 12:44:57;;;;;;;4.53;1.60;;;25.80;65.30;;;;;;4970436;28;20058;-60
2022/08/26 12:47:26;;;;;;;4.57;2.00;;;25.30;71.10;;;;;;4963556;28;20061;-60
2022/08/26 12:50:25;;;;;;;6.28;1.42;;;25.10;74.30;;;;;;4970468;28;20033;-60
2022/08/26 12:53:08;;;;;;;4.95;1.38;;;24.80;76.10;;;;;;4969185;28;20023;-60
2022/08/26 12:55:40;;;;;;;3.40;1.75;;;24.60;79.30;;;;;;4969740;28;20150;-60
2022/08/26 12:58:24;;;;;;;4.80;1.55;;;24.50;79.60;;;;;;4969829;28;20038;-60
2022/08/26 13:00:56;;;;;;;3.72;1.75;;;24.50;76.80;;;;;;4969255;28;20549;-60
2022/08/26 13:03:37;;;;;;;4.78;1.30;;;25.50;74.50;;;;;;4968753;28;20050;-60